sensor_id;sensor_type;location;lat;lon;timestamp;P1;durP1;ratioP1;P2;durP2;ratioP2
57325;SDS011;43161;50.950;18.224;2022-09-13T00:00:53;12.80;;;10.10;;
57325;SDS011;43161;50.950;18.224;2022-09-13T00:03:19;19.20;;;11.60;;
57325;SDS011;43161;50.950;18.224;2022-09-13T00:05:45;15.30;;;11.60;;
57325;SDS011;43161;50.950;18.224;2022-09-13T00:08:11;19.60;;;13.40;;
57325;SDS011;43161;50.950;18.224;2022-09-13T00:10:38;23.00;;;14.10;;
57325;SDS011;43161;50.950;18.224;2022-09-13T00:13:06;19.00;;;12.90;;
57325;SDS011;43161;50.950;18.224;2022-09-13T00:15:32;18.10;;;12.80;;
57325;SDS011;43161;50.950;18.224;2022-09-13T00:17:59;16.80;;;11.50;;
57325;SDS011;43161;50.950;18.224;2022-09-13T00:20:24;18.90;;;11.70;;
57325;SDS011;43161;50.950;18.224;2022-09-13T00:22:50;14.50;;;11.70;;
57325;SDS011;43161;50.950;18.224;2022-09-13T00:25:16;16.70;;;12.30;;
57325;SDS011;43161;50.950;18.224;2022-09-13T00:27:42;18.60;;;11.70;;
57325;SDS011;43161;50.950;18.224;2022-09-13T00:30:09;19.90;;;12.90;;
57325;SDS011;43161;50.950;18.224;2022-09-13T00:32:35;15.90;;;11.80;;
57325;SDS011;43161;50.950;18.224;2022-09-13T00:35:01;17.40;;;13.00;;
57325;SDS011;43161;50.950;18.224;2022-09-13T00:37:28;21.70;;;14.40;;
57325;SDS011;43161;50.950;18.224;2022-09-13T00:39:53;23.00;;;13.80;;
57325;SDS011;43161;50.950;18.224;2022-09-13T00:42:23;20.30;;;14.40;;
57325;SDS011;43161;50.950;18.224;2022-09-13T00:53:08;20.00;;;15.10;;
57325;SDS011;43161;50.950;18.224;2022-09-13T00:55:43;21.70;;;15.10;;
57325;SDS011;43161;50.950;18.224;2022-09-13T00:58:20;21.30;;;14.10;;
57325;SDS011;43161;50.950;18.224;2022-09-13T01:00:49;20.90;;;14.60;;
57325;SDS011;43161;50.950;18.224;2022-09-13T01:03:16;23.60;;;16.00;;
57325;SDS011;43161;50.950;18.224;2022-09-13T01:05:45;22.80;;;16.20;;
57325;SDS011;43161;50.950;18.224;2022-09-13T01:08:13;34.30;;;21.40;;
57325;SDS011;43161;50.950;18.224;2022-09-13T01:10:46;45.80;;;30.40;;
57325;SDS011;43161;50.950;18.224;2022-09-13T01:13:16;36.40;;;26.50;;
57325;SDS011;43161;50.950;18.224;2022-09-13T01:15:44;51.00;;;32.80;;
57325;SDS011;43161;50.950;18.224;2022-09-13T01:18:10;72.70;;;45.70;;
57325;SDS011;43161;50.950;18.224;2022-09-13T01:31:40;41.30;;;26.70;;
57325;SDS011;43161;50.950;18.224;2022-09-13T01:34:11;33.30;;;23.60;;
57325;SDS011;43161;50.950;18.224;2022-09-13T01:39:56;45.70;;;21.20;;
57325;SDS011;43161;50.950;18.224;2022-09-13T01:42:29;29.80;;;20.40;;
57325;SDS011;43161;50.950;18.224;2022-09-13T01:53:00;29.80;;;21.70;;
57325;SDS011;43161;50.950;18.224;2022-09-13T01:58:38;29.40;;;20.60;;
57325;SDS011;43161;50.950;18.224;2022-09-13T02:00:59;27.80;;;19.30;;
57325;SDS011;43161;50.950;18.224;2022-09-13T02:03:52;26.20;;;19.70;;
57325;SDS011;43161;50.950;18.224;2022-09-13T02:06:32;27.30;;;20.60;;
57325;SDS011;43161;50.950;18.224;2022-09-13T02:09:07;33.60;;;22.40;;
57325;SDS011;43161;50.950;18.224;2022-09-13T02:11:36;28.70;;;21.20;;
57325;SDS011;43161;50.950;18.224;2022-09-13T02:17:00;33.30;;;23.30;;
57325;SDS011;43161;50.950;18.224;2022-09-13T02:22:22;52.80;;;35.10;;
57325;SDS011;43161;50.950;18.224;2022-09-13T02:24:53;44.60;;;31.80;;
57325;SDS011;43161;50.950;18.224;2022-09-13T02:27:23;40.30;;;27.20;;
57325;SDS011;43161;50.950;18.224;2022-09-13T02:29:51;35.40;;;26.20;;
57325;SDS011;43161;50.950;18.224;2022-09-13T02:32:21;38.30;;;26.40;;
57325;SDS011;43161;50.950;18.224;2022-09-13T02:35:11;29.30;;;20.90;;
57325;SDS011;43161;50.950;18.224;2022-09-13T02:37:41;28.90;;;20.20;;
57325;SDS011;43161;50.950;18.224;2022-09-13T02:40:11;30.50;;;20.20;;
57325;SDS011;43161;50.950;18.224;2022-09-13T02:42:40;27.10;;;20.30;;
57325;SDS011;43161;50.950;18.224;2022-09-13T02:45:08;108.50;;;50.20;;
57325;SDS011;43161;50.950;18.224;2022-09-13T02:53:13;47.00;;;25.70;;
57325;SDS011;43161;50.950;18.224;2022-09-13T02:56:06;44.40;;;23.30;;
57325;SDS011;43161;50.950;18.224;2022-09-13T02:58:47;34.70;;;20.10;;
57325;SDS011;43161;50.950;18.224;2022-09-13T03:01:33;50.10;;;25.80;;
57325;SDS011;43161;50.950;18.224;2022-09-13T03:06:27;39.90;;;21.90;;
57325;SDS011;43161;50.950;18.224;2022-09-13T03:08:53;34.00;;;19.60;;
57325;SDS011;43161;50.950;18.224;2022-09-13T03:28:05;27.90;;;16.00;;
57325;SDS011;43161;50.950;18.224;2022-09-13T03:30:55;44.50;;;20.10;;
57325;SDS011;43161;50.950;18.224;2022-09-13T03:36:24;59.60;;;19.30;;
57325;SDS011;43161;50.950;18.224;2022-09-13T03:41:54;26.00;;;14.50;;
57325;SDS011;43161;50.950;18.224;2022-09-13T03:44:22;32.80;;;15.50;;
57325;SDS011;43161;50.950;18.224;2022-09-13T03:46:50;39.80;;;17.20;;
57325;SDS011;43161;50.950;18.224;2022-09-13T03:49:19;35.10;;;14.80;;
57325;SDS011;43161;50.950;18.224;2022-09-13T03:51:48;60.30;;;16.50;;
57325;SDS011;43161;50.950;18.224;2022-09-13T03:54:16;38.20;;;16.70;;
57325;SDS011;43161;50.950;18.224;2022-09-13T03:57:04;34.10;;;16.60;;
57325;SDS011;43161;50.950;18.224;2022-09-13T03:59:30;26.00;;;16.50;;
57325;SDS011;43161;50.950;18.224;2022-09-13T04:01:56;28.20;;;15.50;;
57325;SDS011;43161;50.950;18.224;2022-09-13T04:04:22;22.20;;;16.20;;
57325;SDS011;43161;50.950;18.224;2022-09-13T04:06:47;21.20;;;14.90;;
57325;SDS011;43161;50.950;18.224;2022-09-13T04:09:13;23.00;;;16.30;;
57325;SDS011;43161;50.950;18.224;2022-09-13T04:11:38;19.60;;;16.30;;
57325;SDS011;43161;50.950;18.224;2022-09-13T04:14:05;23.40;;;16.10;;
57325;SDS011;43161;50.950;18.224;2022-09-13T04:16:30;23.30;;;16.80;;
57325;SDS011;43161;50.950;18.224;2022-09-13T04:18:56;20.10;;;17.20;;
57325;SDS011;43161;50.950;18.224;2022-09-13T04:21:22;21.60;;;15.50;;
57325;SDS011;43161;50.950;18.224;2022-09-13T04:23:48;20.00;;;15.90;;
57325;SDS011;43161;50.950;18.224;2022-09-13T04:26:14;23.40;;;17.20;;
57325;SDS011;43161;50.950;18.224;2022-09-13T04:28:40;23.60;;;15.10;;
57325;SDS011;43161;50.950;18.224;2022-09-13T04:31:06;26.40;;;17.60;;
57325;SDS011;43161;50.950;18.224;2022-09-13T04:33:32;22.40;;;15.60;;
57325;SDS011;43161;50.950;18.224;2022-09-13T04:35:57;23.90;;;16.60;;
57325;SDS011;43161;50.950;18.224;2022-09-13T04:38:24;22.90;;;17.10;;
57325;SDS011;43161;50.950;18.224;2022-09-13T04:40:51;23.60;;;17.40;;
57325;SDS011;43161;50.950;18.224;2022-09-13T04:43:20;24.90;;;17.90;;
57325;SDS011;43161;50.950;18.224;2022-09-13T04:45:46;25.60;;;18.70;;
57325;SDS011;43161;50.950;18.224;2022-09-13T04:48:12;27.70;;;19.60;;
57325;SDS011;43161;50.950;18.224;2022-09-13T04:50:38;28.40;;;17.80;;
57325;SDS011;43161;50.950;18.224;2022-09-13T04:53:04;23.80;;;17.00;;
57325;SDS011;43161;50.950;18.224;2022-09-13T04:55:29;27.10;;;18.70;;
57325;SDS011;43161;50.950;18.224;2022-09-13T04:57:55;29.60;;;18.60;;
57325;SDS011;43161;50.950;18.224;2022-09-13T05:00:21;30.90;;;20.00;;
57325;SDS011;43161;50.950;18.224;2022-09-13T05:02:47;28.90;;;19.80;;
57325;SDS011;43161;50.950;18.224;2022-09-13T05:05:12;29.50;;;19.70;;
57325;SDS011;43161;50.950;18.224;2022-09-13T05:07:39;33.30;;;20.30;;
57325;SDS011;43161;50.950;18.224;2022-09-13T05:10:05;34.60;;;19.60;;
57325;SDS011;43161;50.950;18.224;2022-09-13T05:12:31;28.00;;;18.60;;
57325;SDS011;43161;50.950;18.224;2022-09-13T05:14:56;28.00;;;20.30;;
57325;SDS011;43161;50.950;18.224;2022-09-13T05:17:22;28.40;;;19.40;;
57325;SDS011;43161;50.950;18.224;2022-09-13T05:19:48;24.50;;;17.20;;
57325;SDS011;43161;50.950;18.224;2022-09-13T05:22:14;27.10;;;17.10;;
57325;SDS011;43161;50.950;18.224;2022-09-13T05:24:40;24.30;;;16.90;;
57325;SDS011;43161;50.950;18.224;2022-09-13T05:27:06;25.50;;;17.00;;
57325;SDS011;43161;50.950;18.224;2022-09-13T05:29:31;22.00;;;16.20;;
57325;SDS011;43161;50.950;18.224;2022-09-13T05:31:57;22.60;;;16.50;;
57325;SDS011;43161;50.950;18.224;2022-09-13T05:34:23;18.20;;;14.70;;
57325;SDS011;43161;50.950;18.224;2022-09-13T05:36:48;18.80;;;14.80;;
57325;SDS011;43161;50.950;18.224;2022-09-13T05:39:15;22.50;;;15.80;;
57325;SDS011;43161;50.950;18.224;2022-09-13T05:41:46;21.20;;;15.50;;
57325;SDS011;43161;50.950;18.224;2022-09-13T05:44:12;22.50;;;16.40;;
57325;SDS011;43161;50.950;18.224;2022-09-13T05:46:38;23.00;;;14.40;;
57325;SDS011;43161;50.950;18.224;2022-09-13T05:49:04;25.90;;;15.00;;
57325;SDS011;43161;50.950;18.224;2022-09-13T05:51:29;20.30;;;14.70;;
57325;SDS011;43161;50.950;18.224;2022-09-13T05:53:56;25.90;;;15.60;;
57325;SDS011;43161;50.950;18.224;2022-09-13T05:56:23;24.90;;;15.20;;
57325;SDS011;43161;50.950;18.224;2022-09-13T05:58:51;21.00;;;15.70;;
57325;SDS011;43161;50.950;18.224;2022-09-13T06:01:18;26.80;;;15.10;;
57325;SDS011;43161;50.950;18.224;2022-09-13T06:03:46;24.30;;;16.40;;
57325;SDS011;43161;50.950;18.224;2022-09-13T06:06:13;22.50;;;15.50;;
57325;SDS011;43161;50.950;18.224;2022-09-13T06:08:39;23.00;;;16.10;;
57325;SDS011;43161;50.950;18.224;2022-09-13T06:11:07;22.60;;;16.80;;
57325;SDS011;43161;50.950;18.224;2022-09-13T06:13:34;27.70;;;16.30;;
57325;SDS011;43161;50.950;18.224;2022-09-13T06:16:01;24.20;;;17.10;;
57325;SDS011;43161;50.950;18.224;2022-09-13T06:18:28;23.30;;;16.50;;
57325;SDS011;43161;50.950;18.224;2022-09-13T06:20:58;30.10;;;17.70;;
57325;SDS011;43161;50.950;18.224;2022-09-13T06:23:26;22.70;;;16.00;;
57325;SDS011;43161;50.950;18.224;2022-09-13T06:28:38;23.50;;;15.60;;
57325;SDS011;43161;50.950;18.224;2022-09-13T06:31:06;20.10;;;15.00;;
57325;SDS011;43161;50.950;18.224;2022-09-13T06:33:33;18.00;;;14.30;;
57325;SDS011;43161;50.950;18.224;2022-09-13T06:36:03;20.10;;;14.30;;
57325;SDS011;43161;50.950;18.224;2022-09-13T06:38:30;19.70;;;14.20;;
57325;SDS011;43161;50.950;18.224;2022-09-13T06:41:04;18.30;;;13.30;;
57325;SDS011;43161;50.950;18.224;2022-09-13T06:43:31;20.30;;;13.30;;
57325;SDS011;43161;50.950;18.224;2022-09-13T06:45:58;21.90;;;14.60;;
57325;SDS011;43161;50.950;18.224;2022-09-13T06:48:25;18.40;;;13.50;;
57325;SDS011;43161;50.950;18.224;2022-09-13T06:50:50;16.10;;;12.90;;
57325;SDS011;43161;50.950;18.224;2022-09-13T06:53:16;15.60;;;12.50;;
57325;SDS011;43161;50.950;18.224;2022-09-13T06:55:41;14.30;;;12.00;;
57325;SDS011;43161;50.950;18.224;2022-09-13T06:58:07;13.10;;;10.50;;
57325;SDS011;43161;50.950;18.224;2022-09-13T07:00:33;15.60;;;11.90;;
57325;SDS011;43161;50.950;18.224;2022-09-13T07:02:58;14.80;;;11.00;;
57325;SDS011;43161;50.950;18.224;2022-09-13T07:05:24;13.10;;;10.50;;
57325;SDS011;43161;50.950;18.224;2022-09-13T07:07:49;13.50;;;10.60;;
57325;SDS011;43161;50.950;18.224;2022-09-13T07:10:16;11.90;;;10.00;;
57325;SDS011;43161;50.950;18.224;2022-09-13T07:12:41;14.60;;;9.90;;
57325;SDS011;43161;50.950;18.224;2022-09-13T07:15:07;12.20;;;9.60;;
57325;SDS011;43161;50.950;18.224;2022-09-13T07:17:33;13.20;;;10.00;;
57325;SDS011;43161;50.950;18.224;2022-09-13T07:19:59;12.90;;;9.70;;
57325;SDS011;43161;50.950;18.224;2022-09-13T07:22:24;16.10;;;8.40;;
57325;SDS011;43161;50.950;18.224;2022-09-13T07:24:52;11.80;;;8.60;;
57325;SDS011;43161;50.950;18.224;2022-09-13T07:27:18;11.80;;;9.20;;
57325;SDS011;43161;50.950;18.224;2022-09-13T07:29:44;14.70;;;9.20;;
57325;SDS011;43161;50.950;18.224;2022-09-13T07:32:09;12.30;;;9.40;;
57325;SDS011;43161;50.950;18.224;2022-09-13T07:34:35;10.90;;;8.40;;
57325;SDS011;43161;50.950;18.224;2022-09-13T07:37:00;11.80;;;8.20;;
57325;SDS011;43161;50.950;18.224;2022-09-13T07:39:26;10.50;;;8.20;;
57325;SDS011;43161;50.950;18.224;2022-09-13T07:41:52;11.20;;;8.30;;
57325;SDS011;43161;50.950;18.224;2022-09-13T07:44:20;12.50;;;8.30;;
57325;SDS011;43161;50.950;18.224;2022-09-13T07:46:47;12.30;;;7.90;;
57325;SDS011;43161;50.950;18.224;2022-09-13T07:49:13;12.50;;;8.60;;
57325;SDS011;43161;50.950;18.224;2022-09-13T07:51:42;10.60;;;7.60;;
57325;SDS011;43161;50.950;18.224;2022-09-13T07:54:09;10.50;;;8.10;;
57325;SDS011;43161;50.950;18.224;2022-09-13T07:56:37;10.40;;;7.90;;
57325;SDS011;43161;50.950;18.224;2022-09-13T07:59:05;8.60;;;7.20;;
57325;SDS011;43161;50.950;18.224;2022-09-13T08:01:36;9.70;;;6.90;;
57325;SDS011;43161;50.950;18.224;2022-09-13T08:04:07;8.90;;;6.40;;
57325;SDS011;43161;50.950;18.224;2022-09-13T08:06:35;8.40;;;6.40;;
57325;SDS011;43161;50.950;18.224;2022-09-13T08:09:02;7.80;;;5.90;;
57325;SDS011;43161;50.950;18.224;2022-09-13T08:11:33;11.00;;;6.60;;
57325;SDS011;43161;50.950;18.224;2022-09-13T08:14:00;15.30;;;5.70;;
57325;SDS011;43161;50.950;18.224;2022-09-13T08:16:27;11.10;;;6.60;;
57325;SDS011;43161;50.950;18.224;2022-09-13T08:18:55;9.10;;;6.20;;
57325;SDS011;43161;50.950;18.224;2022-09-13T08:21:22;7.90;;;6.20;;
57325;SDS011;43161;50.950;18.224;2022-09-13T08:23:48;7.20;;;5.10;;
57325;SDS011;43161;50.950;18.224;2022-09-13T08:26:15;6.90;;;4.90;;
57325;SDS011;43161;50.950;18.224;2022-09-13T08:28:41;5.30;;;3.90;;
57325;SDS011;43161;50.950;18.224;2022-09-13T08:31:08;7.50;;;4.70;;
57325;SDS011;43161;50.950;18.224;2022-09-13T08:33:35;6.30;;;3.90;;
57325;SDS011;43161;50.950;18.224;2022-09-13T08:36:02;5.70;;;3.90;;
57325;SDS011;43161;50.950;18.224;2022-09-13T08:40:55;5.20;;;4.00;;
57325;SDS011;43161;50.950;18.224;2022-09-13T08:48:34;7.60;;;5.00;;
57325;SDS011;43161;50.950;18.224;2022-09-13T08:51:22;6.20;;;4.20;;
57325;SDS011;43161;50.950;18.224;2022-09-13T08:53:52;7.30;;;4.90;;
57325;SDS011;43161;50.950;18.224;2022-09-13T08:59:12;4.40;;;3.90;;
57325;SDS011;43161;50.950;18.224;2022-09-13T09:05:03;6.10;;;4.90;;
57325;SDS011;43161;50.950;18.224;2022-09-13T09:07:36;5.50;;;4.30;;
57325;SDS011;43161;50.950;18.224;2022-09-13T09:12:38;7.80;;;4.20;;
57325;SDS011;43161;50.950;18.224;2022-09-13T09:15:28;6.40;;;4.30;;
57325;SDS011;43161;50.950;18.224;2022-09-13T09:20:51;7.20;;;4.50;;
57325;SDS011;43161;50.950;18.224;2022-09-13T09:23:31;6.30;;;4.70;;
57325;SDS011;43161;50.950;18.224;2022-09-13T09:28:42;7.70;;;6.20;;
57325;SDS011;43161;50.950;18.224;2022-09-13T09:31:23;6.60;;;4.60;;
57325;SDS011;43161;50.950;18.224;2022-09-13T09:39:32;5.30;;;4.00;;
57325;SDS011;43161;50.950;18.224;2022-09-13T09:42:03;4.80;;;3.60;;
57325;SDS011;43161;50.950;18.224;2022-09-13T09:44:33;4.80;;;3.40;;
57325;SDS011;43161;50.950;18.224;2022-09-13T09:47:03;7.00;;;4.20;;
57325;SDS011;43161;50.950;18.224;2022-09-13T09:49:36;3.90;;;3.20;;
57325;SDS011;43161;50.950;18.224;2022-09-13T09:52:26;8.10;;;2.80;;
57325;SDS011;43161;50.950;18.224;2022-09-13T09:54:57;4.40;;;3.60;;
57325;SDS011;43161;50.950;18.224;2022-09-13T09:58:00;4.30;;;3.10;;
57325;SDS011;43161;50.950;18.224;2022-09-13T10:00:20;7.50;;;3.10;;
57325;SDS011;43161;50.950;18.224;2022-09-13T10:02:48;5.20;;;3.30;;
57325;SDS011;43161;50.950;18.224;2022-09-13T10:05:17;6.20;;;3.00;;
57325;SDS011;43161;50.950;18.224;2022-09-13T10:07:50;7.30;;;3.90;;
57325;SDS011;43161;50.950;18.224;2022-09-13T10:10:20;3.90;;;3.20;;
57325;SDS011;43161;50.950;18.224;2022-09-13T10:12:49;5.20;;;3.10;;
57325;SDS011;43161;50.950;18.224;2022-09-13T10:15:18;5.20;;;3.40;;
57325;SDS011;43161;50.950;18.224;2022-09-13T10:18:00;4.10;;;3.20;;
57325;SDS011;43161;50.950;18.224;2022-09-13T10:20:58;4.30;;;3.00;;
57325;SDS011;43161;50.950;18.224;2022-09-13T10:23:30;5.50;;;3.00;;
57325;SDS011;43161;50.950;18.224;2022-09-13T10:28:34;5.40;;;3.50;;
57325;SDS011;43161;50.950;18.224;2022-09-13T10:31:07;5.90;;;3.40;;
57325;SDS011;43161;50.950;18.224;2022-09-13T10:33:39;6.20;;;3.40;;
57325;SDS011;43161;50.950;18.224;2022-09-13T10:36:11;4.80;;;3.40;;
57325;SDS011;43161;50.950;18.224;2022-09-13T10:38:39;6.60;;;3.90;;
57325;SDS011;43161;50.950;18.224;2022-09-13T10:41:10;3.70;;;3.30;;
57325;SDS011;43161;50.950;18.224;2022-09-13T10:43:46;4.50;;;3.20;;
57325;SDS011;43161;50.950;18.224;2022-09-13T10:46:12;3.30;;;2.50;;
57325;SDS011;43161;50.950;18.224;2022-09-13T10:48:43;4.80;;;3.30;;
57325;SDS011;43161;50.950;18.224;2022-09-13T10:51:27;5.50;;;3.50;;
57325;SDS011;43161;50.950;18.224;2022-09-13T10:54:14;3.80;;;3.40;;
57325;SDS011;43161;50.950;18.224;2022-09-13T10:56:44;4.20;;;3.50;;
57325;SDS011;43161;50.950;18.224;2022-09-13T10:59:15;6.50;;;4.20;;
57325;SDS011;43161;50.950;18.224;2022-09-13T11:01:49;4.80;;;4.30;;
57325;SDS011;43161;50.950;18.224;2022-09-13T11:10:28;5.40;;;4.70;;
57325;SDS011;43161;50.950;18.224;2022-09-13T11:13:04;5.00;;;4.20;;
57325;SDS011;43161;50.950;18.224;2022-09-13T11:18:31;7.40;;;4.20;;
57325;SDS011;43161;50.950;18.224;2022-09-13T11:21:05;3.80;;;3.30;;
57325;SDS011;43161;50.950;18.224;2022-09-13T11:26:04;6.70;;;4.20;;
57325;SDS011;43161;50.950;18.224;2022-09-13T11:34:37;3.90;;;3.50;;
57325;SDS011;43161;50.950;18.224;2022-09-13T11:43:07;5.50;;;3.60;;
57325;SDS011;43161;50.950;18.224;2022-09-13T11:45:47;8.50;;;4.30;;
57325;SDS011;43161;50.950;18.224;2022-09-13T11:57:43;4.70;;;2.80;;
57325;SDS011;43161;50.950;18.224;2022-09-13T12:08:47;4.50;;;3.00;;
57325;SDS011;43161;50.950;18.224;2022-09-13T12:11:16;3.90;;;3.50;;
57325;SDS011;43161;50.950;18.224;2022-09-13T12:13:50;5.80;;;3.60;;
57325;SDS011;43161;50.950;18.224;2022-09-13T12:16:21;7.00;;;3.50;;
57325;SDS011;43161;50.950;18.224;2022-09-13T12:18:50;3.60;;;3.30;;
57325;SDS011;43161;50.950;18.224;2022-09-13T12:21:19;5.00;;;3.00;;
57325;SDS011;43161;50.950;18.224;2022-09-13T12:29:28;4.10;;;3.70;;
57325;SDS011;43161;50.950;18.224;2022-09-13T12:32:02;6.10;;;2.70;;
57325;SDS011;43161;50.950;18.224;2022-09-13T12:37:27;4.10;;;3.50;;
57325;SDS011;43161;50.950;18.224;2022-09-13T12:40:20;8.80;;;3.50;;
57325;SDS011;43161;50.950;18.224;2022-09-13T12:59:37;4.40;;;2.80;;
57325;SDS011;43161;50.950;18.224;2022-09-13T13:05:40;3.20;;;2.90;;
57325;SDS011;43161;50.950;18.224;2022-09-13T13:13:34;3.70;;;3.20;;
57325;SDS011;43161;50.950;18.224;2022-09-13T13:16:05;3.90;;;3.30;;
57325;SDS011;43161;50.950;18.224;2022-09-13T13:19:00;6.70;;;2.80;;
57325;SDS011;43161;50.950;18.224;2022-09-13T13:21:29;5.30;;;3.10;;
57325;SDS011;43161;50.950;18.224;2022-09-13T13:31:38;4.20;;;2.80;;
57325;SDS011;43161;50.950;18.224;2022-09-13T13:39:07;3.70;;;2.60;;
57325;SDS011;43161;50.950;18.224;2022-09-13T13:41:38;4.70;;;3.60;;
57325;SDS011;43161;50.950;18.224;2022-09-13T13:46:39;5.70;;;2.60;;
57325;SDS011;43161;50.950;18.224;2022-09-13T13:57:43;5.70;;;3.00;;
57325;SDS011;43161;50.950;18.224;2022-09-13T14:00:24;6.20;;;2.70;;
57325;SDS011;43161;50.950;18.224;2022-09-13T14:10:42;4.10;;;3.00;;
57325;SDS011;43161;50.950;18.224;2022-09-13T14:21:32;6.60;;;3.30;;
57325;SDS011;43161;50.950;18.224;2022-09-13T14:26:47;6.70;;;3.40;;
57325;SDS011;43161;50.950;18.224;2022-09-13T14:29:17;7.00;;;3.80;;
57325;SDS011;43161;50.950;18.224;2022-09-13T14:31:44;4.40;;;3.00;;
57325;SDS011;43161;50.950;18.224;2022-09-13T14:36:58;3.70;;;3.00;;
57325;SDS011;43161;50.950;18.224;2022-09-13T14:39:25;3.40;;;3.00;;
57325;SDS011;43161;50.950;18.224;2022-09-13T14:44:37;5.10;;;4.30;;
57325;SDS011;43161;50.950;18.224;2022-09-13T14:47:14;5.00;;;3.80;;
57325;SDS011;43161;50.950;18.224;2022-09-13T14:49:45;5.50;;;3.50;;
57325;SDS011;43161;50.950;18.224;2022-09-13T14:52:18;11.30;;;3.70;;
57325;SDS011;43161;50.950;18.224;2022-09-13T14:54:49;5.10;;;3.60;;
57325;SDS011;43161;50.950;18.224;2022-09-13T14:57:22;7.60;;;3.70;;
57325;SDS011;43161;50.950;18.224;2022-09-13T14:59:55;3.70;;;3.30;;
57325;SDS011;43161;50.950;18.224;2022-09-13T15:02:24;6.20;;;3.70;;
57325;SDS011;43161;50.950;18.224;2022-09-13T15:04:53;5.20;;;3.70;;
57325;SDS011;43161;50.950;18.224;2022-09-13T15:07:32;3.30;;;3.00;;
57325;SDS011;43161;50.950;18.224;2022-09-13T15:10:06;4.10;;;3.60;;
57325;SDS011;43161;50.950;18.224;2022-09-13T15:15:37;6.90;;;4.30;;
57325;SDS011;43161;50.950;18.224;2022-09-13T15:21:00;4.20;;;3.80;;
57325;SDS011;43161;50.950;18.224;2022-09-13T15:23:30;5.40;;;3.90;;
57325;SDS011;43161;50.950;18.224;2022-09-13T15:26:03;5.00;;;4.40;;
57325;SDS011;43161;50.950;18.224;2022-09-13T15:28:56;5.40;;;4.20;;
57325;SDS011;43161;50.950;18.224;2022-09-13T15:31:22;5.20;;;4.10;;
57325;SDS011;43161;50.950;18.224;2022-09-13T15:34:09;6.20;;;3.70;;
57325;SDS011;43161;50.950;18.224;2022-09-13T15:40:20;5.80;;;3.70;;
57325;SDS011;43161;50.950;18.224;2022-09-13T15:42:32;4.30;;;3.60;;
57325;SDS011;43161;50.950;18.224;2022-09-13T15:44:58;9.90;;;4.50;;
57325;SDS011;43161;50.950;18.224;2022-09-13T15:47:24;5.10;;;3.80;;
57325;SDS011;43161;50.950;18.224;2022-09-13T15:49:49;8.30;;;4.20;;
57325;SDS011;43161;50.950;18.224;2022-09-13T15:52:16;8.00;;;3.40;;
57325;SDS011;43161;50.950;18.224;2022-09-13T15:54:45;4.30;;;3.70;;
57325;SDS011;43161;50.950;18.224;2022-09-13T15:59:56;9.30;;;3.80;;
57325;SDS011;43161;50.950;18.224;2022-09-13T16:02:26;6.00;;;3.50;;
57325;SDS011;43161;50.950;18.224;2022-09-13T16:04:55;4.30;;;3.90;;
57325;SDS011;43161;50.950;18.224;2022-09-13T16:07:21;3.70;;;3.30;;
57325;SDS011;43161;50.950;18.224;2022-09-13T16:09:48;5.10;;;3.80;;
57325;SDS011;43161;50.950;18.224;2022-09-13T16:12:14;4.80;;;3.90;;
57325;SDS011;43161;50.950;18.224;2022-09-13T16:14:40;5.20;;;4.50;;
57325;SDS011;43161;50.950;18.224;2022-09-13T16:17:18;5.40;;;4.50;;
57325;SDS011;43161;50.950;18.224;2022-09-13T16:19:46;7.00;;;4.80;;
57325;SDS011;43161;50.950;18.224;2022-09-13T16:22:12;7.40;;;4.40;;
57325;SDS011;43161;50.950;18.224;2022-09-13T16:24:38;5.30;;;4.10;;
57325;SDS011;43161;50.950;18.224;2022-09-13T16:27:04;12.90;;;4.80;;
57325;SDS011;43161;50.950;18.224;2022-09-13T16:29:30;9.40;;;4.20;;
57325;SDS011;43161;50.950;18.224;2022-09-13T16:31:55;7.10;;;4.70;;
57325;SDS011;43161;50.950;18.224;2022-09-13T16:34:24;11.10;;;3.90;;
57325;SDS011;43161;50.950;18.224;2022-09-13T16:36:50;4.60;;;4.20;;
57325;SDS011;43161;50.950;18.224;2022-09-13T16:39:16;6.20;;;4.40;;
57325;SDS011;43161;50.950;18.224;2022-09-13T16:41:42;5.50;;;4.60;;
57325;SDS011;43161;50.950;18.224;2022-09-13T16:44:07;5.20;;;4.60;;
57325;SDS011;43161;50.950;18.224;2022-09-13T16:46:33;11.90;;;5.10;;
57325;SDS011;43161;50.950;18.224;2022-09-13T16:48:59;8.00;;;4.60;;
57325;SDS011;43161;50.950;18.224;2022-09-13T16:51:25;6.00;;;4.80;;
57325;SDS011;43161;50.950;18.224;2022-09-13T16:53:51;7.40;;;4.40;;
57325;SDS011;43161;50.950;18.224;2022-09-13T16:56:18;7.10;;;4.80;;
57325;SDS011;43161;50.950;18.224;2022-09-13T16:58:46;8.60;;;4.30;;
57325;SDS011;43161;50.950;18.224;2022-09-13T17:01:12;8.60;;;5.30;;
57325;SDS011;43161;50.950;18.224;2022-09-13T17:03:39;10.70;;;5.10;;
57325;SDS011;43161;50.950;18.224;2022-09-13T17:06:07;8.40;;;5.20;;
57325;SDS011;43161;50.950;18.224;2022-09-13T17:08:35;5.90;;;5.00;;
57325;SDS011;43161;50.950;18.224;2022-09-13T17:11:05;6.60;;;5.10;;
57325;SDS011;43161;50.950;18.224;2022-09-13T17:13:32;5.80;;;5.20;;
57325;SDS011;43161;50.950;18.224;2022-09-13T17:15:58;7.40;;;6.10;;
57325;SDS011;43161;50.950;18.224;2022-09-13T17:18:24;10.20;;;6.20;;
57325;SDS011;43161;50.950;18.224;2022-09-13T17:20:50;13.00;;;7.50;;
57325;SDS011;43161;50.950;18.224;2022-09-13T17:23:16;14.60;;;7.50;;
57325;SDS011;43161;50.950;18.224;2022-09-13T17:25:42;13.00;;;8.40;;
57325;SDS011;43161;50.950;18.224;2022-09-13T17:28:11;13.70;;;10.30;;
57325;SDS011;43161;50.950;18.224;2022-09-13T17:30:37;18.70;;;11.00;;
57325;SDS011;43161;50.950;18.224;2022-09-13T17:33:03;10.90;;;9.20;;
57325;SDS011;43161;50.950;18.224;2022-09-13T17:35:30;10.60;;;8.80;;
57325;SDS011;43161;50.950;18.224;2022-09-13T17:37:57;13.30;;;8.40;;
57325;SDS011;43161;50.950;18.224;2022-09-13T17:40:24;14.70;;;8.30;;
57325;SDS011;43161;50.950;18.224;2022-09-13T17:42:50;12.60;;;7.60;;
57325;SDS011;43161;50.950;18.224;2022-09-13T17:45:17;8.90;;;5.90;;
57325;SDS011;43161;50.950;18.224;2022-09-13T17:47:42;6.60;;;5.60;;
57325;SDS011;43161;50.950;18.224;2022-09-13T17:50:08;7.80;;;6.30;;
57325;SDS011;43161;50.950;18.224;2022-09-13T17:52:34;7.30;;;5.10;;
57325;SDS011;43161;50.950;18.224;2022-09-13T17:55:00;9.60;;;5.70;;
57325;SDS011;43161;50.950;18.224;2022-09-13T17:57:25;7.90;;;6.20;;
57325;SDS011;43161;50.950;18.224;2022-09-13T17:59:52;7.40;;;6.10;;
57325;SDS011;43161;50.950;18.224;2022-09-13T18:04:47;8.70;;;6.90;;
57325;SDS011;43161;50.950;18.224;2022-09-13T18:07:15;10.40;;;6.30;;
57325;SDS011;43161;50.950;18.224;2022-09-13T18:09:40;9.60;;;6.50;;
57325;SDS011;43161;50.950;18.224;2022-09-13T18:12:06;9.50;;;7.30;;
57325;SDS011;43161;50.950;18.224;2022-09-13T18:14:32;8.70;;;6.60;;
57325;SDS011;43161;50.950;18.224;2022-09-13T18:16:58;8.00;;;6.40;;
57325;SDS011;43161;50.950;18.224;2022-09-13T18:19:24;9.20;;;6.30;;
57325;SDS011;43161;50.950;18.224;2022-09-13T18:21:49;7.40;;;6.20;;
57325;SDS011;43161;50.950;18.224;2022-09-13T18:24:15;8.20;;;5.50;;
57325;SDS011;43161;50.950;18.224;2022-09-13T18:26:41;8.40;;;5.70;;
57325;SDS011;43161;50.950;18.224;2022-09-13T18:29:11;9.10;;;5.80;;
57325;SDS011;43161;50.950;18.224;2022-09-13T18:31:38;9.80;;;5.70;;
57325;SDS011;43161;50.950;18.224;2022-09-13T18:34:06;7.90;;;6.10;;
57325;SDS011;43161;50.950;18.224;2022-09-13T18:36:34;6.60;;;5.50;;